Time;durP1;ratioP1;P1;durP2;ratioP2;P2;SDS_P1;SDS_P2;PMS_P1;PMS_P2;Temp;Humidity;BMP_temperature;BMP_pressure;BME280_temperature;BME280_humidity;BME280_pressure;Samples;Min_cycle;Max_cycle;Signal;HPM_P1;HPM_P2
2023/09/20 00:00:52;;;;;;;3.22;1.58;;;;;;;14.24;100.00;98183.72;6106268;19;20010;-72
2023/09/20 00:02:53;;;;;;;1.63;1.30;;;;;;;14.27;100.00;98182.09;6106821;19;20010;-72
2023/09/20 00:04:54;;;;;;;3.08;1.80;;;;;;;14.29;100.00;98179.69;6106273;19;20315;-72
2023/09/20 00:06:55;;;;;;;1.88;1.35;;;;;;;14.30;100.00;98176.47;6106245;19;20328;-72
2023/09/20 00:08:55;;;;;;;2.15;1.45;;;;;;;14.33;100.00;98174.88;6104416;19;20101;-72
2023/09/20 00:10:56;;;;;;;3.63;1.58;;;;;;;14.36;100.00;98187.97;6108495;19;20038;-72
2023/09/20 00:12:56;;;;;;;3.95;1.80;;;;;;;14.36;100.00;98195.53;6112338;19;20014;-72
2023/09/20 00:14:56;;;;;;;4.63;1.73;;;;;;;14.38;100.00;98193.13;6111661;19;20007;-72
2023/09/20 00:16:57;;;;;;;2.97;1.30;;;;;;;14.46;100.00;98194.69;6111494;19;20713;-72
2023/09/20 00:18:57;;;;;;;3.70;1.92;;;;;;;14.52;100.00;98191.03;6110685;19;20011;-72
2023/09/20 00:21:01;;;;;;;4.45;1.80;;;;;;;14.60;100.00;98194.56;6110866;19;20011;-72
2023/09/20 00:23:02;;;;;;;4.88;1.50;;;;;;;14.66;100.00;98198.50;6109478;19;20014;-72
2023/09/20 00:25:03;;;;;;;3.83;1.48;;;;;;;14.72;100.00;98202.38;6109643;19;20006;-72
2023/09/20 00:27:03;;;;;;;2.72;1.70;;;;;;;14.75;100.00;98203.56;6112348;19;20003;-72
2023/09/20 00:29:05;;;;;;;3.78;1.65;;;;;;;14.81;100.00;98210.25;6109398;19;20367;-72
2023/09/20 00:31:05;;;;;;;3.00;1.92;;;;;;;14.85;100.00;98199.88;6111809;19;20013;-72
2023/09/20 00:33:06;;;;;;;1.73;1.23;;;;;;;14.86;100.00;98202.25;6110450;19;20010;-72
2023/09/20 00:35:08;;;;;;;2.97;1.55;;;;;;;14.87;100.00;98194.69;6111835;19;20316;-72
2023/09/20 00:37:08;;;;;;;4.65;1.63;;;;;;;14.89;100.00;98200.63;6110884;19;20227;-72
2023/09/20 00:39:10;;;;;;;3.17;1.65;;;;;;;14.86;100.00;98184.75;6109276;19;20086;-72
2023/09/20 00:41:11;;;;;;;2.45;1.40;;;;;;;14.89;100.00;98198.66;6110554;19;20003;-72
2023/09/20 00:43:11;;;;;;;2.08;1.13;;;;;;;14.88;100.00;98183.13;6110289;19;20006;-72
2023/09/20 00:45:13;;;;;;;3.47;1.38;;;;;;;14.92;100.00;98194.25;6109939;19;19995;-72
2023/09/20 00:47:14;;;;;;;2.17;1.53;;;;;;;14.89;100.00;98186.69;6111380;19;20011;-72
2023/09/20 00:49:14;;;;;;;2.55;1.50;;;;;;;14.95;100.00;98190.63;6109542;19;20660;-72
2023/09/20 00:51:15;;;;;;;4.43;1.80;;;;;;;14.97;100.00;98188.22;6108219;19;20002;-72
2023/09/20 00:53:15;;;;;;;3.35;1.50;;;;;;;14.97;100.00;98187.41;6112837;19;20007;-72
2023/09/20 00:55:20;;;;;;;2.65;1.40;;;;;;;14.99;100.00;98185.81;6111964;19;19999;-72
2023/09/20 00:57:20;;;;;;;2.38;1.40;;;;;;;15.04;100.00;98190.13;6111083;19;20066;-72
2023/09/20 00:59:21;;;;;;;3.25;1.60;;;;;;;15.04;100.00;98185.34;6109378;19;20003;-72
2023/09/20 01:01:22;;;;;;;3.13;1.23;;;;;;;15.05;100.00;98180.56;6111666;19;19999;-72
2023/09/20 01:03:24;;;;;;;2.42;1.40;;;;;;;15.03;100.00;98174.63;6112693;19;20506;-72
2023/09/20 01:05:28;;;;;;;2.88;1.45;;;;;;;15.04;100.00;98185.34;6111645;19;20074;-72
2023/09/20 01:07:29;;;;;;;2.90;1.63;;;;;;;15.03;100.00;98177.41;6111837;19;20006;-72
2023/09/20 01:09:29;;;;;;;4.20;1.67;;;;;;;15.04;100.00;98177.00;6110677;19;20030;-72
2023/09/20 01:11:30;;;;;;;2.25;1.60;;;;;;;15.03;100.00;98185.78;6110759;19;20392;-72
2023/09/20 01:13:30;;;;;;;3.50;1.52;;;;;;;14.97;100.00;98179.84;6112094;19;20009;-72
2023/09/20 01:15:33;;;;;;;1.80;1.30;;;;;;;14.99;100.00;98185.81;6111469;19;20003;-72
2023/09/20 01:17:44;;;;;;;3.22;1.40;;;;;;;14.94;100.00;98183.47;6111334;19;20037;-72
2023/09/20 01:19:44;;;;;;;2.88;1.40;;;;;;;14.95;100.00;98184.28;6110827;19;20306;-72
2023/09/20 01:21:46;;;;;;;2.47;1.38;;;;;;;14.94;100.00;98186.25;6110147;19;20018;-72
2023/09/20 01:23:49;;;;;;;4.85;1.63;;;;;;;14.93;100.00;98175.53;6110027;19;20343;-72
2023/09/20 01:25:49;;;;;;;;;;;;;;;14.91;100.00;98186.31;6110922;19;20351;-72
2023/09/20 01:27:51;;;;;;;2.33;1.50;;;;;;;14.87;100.00;98175.97;6109851;19;19982;-72
2023/09/20 01:29:52;;;;;;;;;;;;;;;14.87;100.00;98175.97;6109690;19;20014;-72
2023/09/20 01:31:59;;;;;;;1.80;1.40;;;;;;;14.84;100.00;98170.47;6111125;19;20253;-72
2023/09/20 01:34:00;;;;;;;2.30;1.30;;;;;;;14.85;100.00;98166.47;6111457;19;20470;-72
2023/09/20 01:36:03;;;;;;;3.88;1.40;;;;;;;14.79;100.00;98168.13;6110956;19;20010;-72
2023/09/20 01:38:07;;;;;;;2.55;1.20;;;;;;;14.77;100.00;98162.19;6110489;19;20007;-72
2023/09/20 01:40:15;;;;;;;4.47;1.88;;;;;;;14.76;100.00;98157.81;6110312;19;19999;-72
2023/09/20 01:42:17;;;;;;;4.00;1.48;;;;;;;14.77;100.00;98162.19;6110019;19;20352;-72
2023/09/20 01:44:17;;;;;;;5.68;1.73;;;;;;;14.73;100.00;98175.31;6110925;19;20003;-72
2023/09/20 01:46:17;;;;;;;4.20;1.67;;;;;;;14.66;100.00;98173.44;6110188;19;20461;-72
2023/09/20 01:48:18;;;;;;;2.75;1.60;;;;;;;14.62;100.00;98161.53;6109893;19;20026;-72
2023/09/20 01:50:20;;;;;;;2.13;1.42;;;;;;;14.63;100.00;98160.31;6109525;19;20362;-72
2023/09/20 01:52:21;;;;;;;;;;;;;;;14.58;100.00;98161.56;6111466;19;20741;-72
2023/09/20 01:54:21;;;;;;;3.00;1.40;;;;;;;14.54;100.00;98169.16;6109680;19;19999;-72
2023/09/20 01:56:23;;;;;;;4.10;1.60;;;;;;;14.54;100.00;98168.34;6109908;19;20011;-72
2023/09/20 01:58:24;;;;;;;;;;;;;;;14.49;100.00;98166.81;6111060;19;20007;-72
2023/09/20 02:00:29;;;;;;;2.25;1.65;;;;;;;14.46;100.00;98162.06;6109953;19;19919;-72
2023/09/20 02:02:29;;;;;;;3.22;1.55;;;;;;;14.56;100.00;98171.50;6111679;19;20018;-72
2023/09/20 02:04:31;;;;;;;3.97;1.60;;;;;;;14.53;100.00;98184.28;6110589;19;20010;-72
2023/09/20 02:06:32;;;;;;;3.10;1.65;;;;;;;14.51;100.00;98180.31;6110462;19;20007;-72
2023/09/20 02:08:34;;;;;;;3.10;1.60;;;;;;;14.46;100.00;98170.41;6110178;19;20002;-72
2023/09/20 02:10:36;;;;;;;3.57;1.70;;;;;;;14.38;100.00;98171.66;6110728;19;20457;-72
2023/09/20 02:12:37;;;;;;;3.88;1.65;;;;;;;14.32;100.00;98164.97;6109792;19;20006;-72
2023/09/20 02:14:37;;;;;;;2.53;1.52;;;;;;;14.28;100.00;98156.63;6110412;19;20006;-72
2023/09/20 02:16:38;;;;;;;5.20;1.65;;;;;;;14.26;100.00;98159.03;6110972;19;20023;-72
2023/09/20 02:18:38;;;;;;;2.67;1.60;;;;;;;14.21;100.00;98155.91;6108699;19;20009;-72
2023/09/20 02:20:39;;;;;;;2.17;1.45;;;;;;;14.20;100.00;98154.31;6109797;19;20017;-72
2023/09/20 02:22:40;;;;;;;5.53;1.70;;;;;;;14.18;100.00;98162.28;6111042;19;20007;-72
2023/09/20 02:24:40;;;;;;;4.50;1.63;;;;;;;14.14;100.00;98153.16;6108146;19;20015;-72
2023/09/20 02:26:41;;;;;;;4.40;1.73;;;;;;;14.13;100.00;98163.50;6110228;19;20329;-72
2023/09/20 02:28:42;;;;;;;2.58;1.98;;;;;;;14.16;100.00;98165.50;6107598;19;20025;-72
2023/09/20 02:30:42;;;;;;;2.53;1.58;;;;;;;14.16;100.00;98159.94;6111150;19;21065;-72
2023/09/20 02:32:44;;;;;;;2.05;1.50;;;;;;;14.12;100.00;98158.34;6110092;19;20015;-72
2023/09/20 02:34:44;;;;;;;3.25;1.67;;;;;;;14.09;100.00;98161.97;6107496;19;20006;-72
2023/09/20 02:36:45;;;;;;;5.60;1.95;;;;;;;14.10;100.00;98158.78;6110440;19;20023;-72
2023/09/20 02:38:45;;;;;;;3.03;1.63;;;;;;;14.09;100.00;98165.53;6106373;19;20007;-72
2023/09/20 02:40:46;;;;;;;4.75;1.60;;;;;;;14.09;100.00;98167.53;6109669;19;20003;-72
2023/09/20 02:42:49;;;;;;;5.10;1.95;;;;;;;14.06;100.00;98166.34;6108861;19;20011;-72
2023/09/20 02:44:50;;;;;;;2.33;2.13;;;;;;;14.10;100.00;98167.13;6110252;19;20334;-72
2023/09/20 02:46:51;;;;;;;4.10;1.63;;;;;;;14.09;100.00;98156.41;6110367;19;20379;-72
2023/09/20 02:48:52;;;;;;;3.13;1.40;;;;;;;14.10;100.00;98156.00;6107748;19;20006;-72
2023/09/20 02:50:53;;;;;;;3.63;1.60;;;;;;;14.11;100.00;98146.44;6108854;19;20011;-72
2023/09/20 02:52:56;;;;;;;3.60;1.98;;;;;;;14.16;100.00;98148.00;6109454;19;20019;-72
2023/09/20 02:54:56;;;;;;;4.13;1.73;;;;;;;14.19;100.00;98147.97;6110456;19;20463;-71
2023/09/20 02:56:56;;;;;;;3.15;1.73;;;;;;;14.25;100.00;98151.09;6109901;19;20021;-72
2023/09/20 02:58:57;;;;;;;3.25;1.60;;;;;;;14.31;100.00;98150.25;6107973;19;20010;-72
2023/09/20 03:00:57;;;;;;;2.92;1.75;;;;;;;14.32;100.00;98148.28;6109771;19;20015;-72
2023/09/20 03:03:00;;;;;;;2.40;1.63;;;;;;;14.31;100.00;98136.34;6109880;19;20384;-72
2023/09/20 03:05:01;;;;;;;4.15;1.30;;;;;;;14.32;100.00;98146.28;6109527;19;20037;-72
2023/09/20 03:07:01;;;;;;;3.42;1.67;;;;;;;14.31;100.00;98144.69;6110003;19;20412;-72
2023/09/20 03:09:03;;;;;;;4.68;1.90;;;;;;;14.30;100.00;98145.09;6108495;19;20018;-72
2023/09/20 03:11:04;;;;;;;4.07;1.63;;;;;;;14.27;100.00;98143.13;6109651;19;20006;-72
2023/09/20 03:13:05;;;;;;;3.13;1.67;;;;;;;14.27;100.00;98141.13;6108696;19;20003;-72
2023/09/20 03:15:10;;;;;;;4.23;1.77;;;;;;;14.28;100.00;98141.94;6109676;19;20006;-72
2023/09/20 03:17:12;;;;;;;5.50;1.95;;;;;;;14.30;100.00;98142.28;6109513;19;20264;-72
2023/09/20 03:19:14;;;;;;;4.55;1.70;;;;;;;14.29;100.00;98135.94;6108292;19;20078;-72
2023/09/20 03:21:14;;;;;;;2.55;1.85;;;;;;;14.36;100.00;98137.09;6108856;19;20069;-72
2023/09/20 03:23:15;;;;;;;3.08;1.30;;;;;;;14.38;100.00;98140.25;6106929;19;20039;-72
2023/09/20 03:25:19;;;;;;;2.90;1.90;;;;;;;14.33;100.00;98133.94;6108278;19;20058;-72
2023/09/20 03:27:23;;;;;;;3.05;1.80;;;;;;;14.34;100.00;98134.72;6109097;19;20003;-72
2023/09/20 03:29:23;;;;;;;5.03;1.60;;;;;;;14.36;100.00;98137.88;6106310;19;20022;-72
2023/09/20 03:31:26;;;;;;;4.72;1.65;;;;;;;14.34;100.00;98131.94;6108562;19;20450;-72
2023/09/20 03:33:27;;;;;;;2.63;1.20;;;;;;;14.34;100.00;98126.38;6109654;19;20003;-72
2023/09/20 03:35:27;;;;;;;5.35;1.70;;;;;;;14.33;100.00;98128.38;6108917;19;20020;-72
2023/09/20 03:37:32;;;;;;;3.20;1.80;;;;;;;14.32;100.00;98120.44;6107467;19;20009;-72
2023/09/20 03:39:35;;;;;;;4.32;1.58;;;;;;;14.33;100.00;98122.81;6108155;19;20039;-72
2023/09/20 03:41:38;;;;;;;3.22;1.52;;;;;;;14.34;100.00;98124.38;6108950;19;20069;-72
2023/09/20 03:43:40;;;;;;;2.05;1.50;;;;;;;14.32;100.00;98123.22;6107141;19;20006;-72
2023/09/20 03:45:41;;;;;;;6.82;1.60;;;;;;;14.33;100.00;98125.59;6111804;19;20024;-72
2023/09/20 03:47:45;;;;;;;2.30;1.65;;;;;;;14.34;100.00;98127.16;6114274;19;20335;-72
2023/09/20 03:49:45;;;;;;;3.30;1.65;;;;;;;14.36;100.00;98125.97;6105808;19;20006;-72
2023/09/20 03:51:45;;;;;;;3.58;2.17;;;;;;;14.39;100.00;98125.91;6113951;19;19998;-72
2023/09/20 03:53:49;;;;;;;3.58;1.52;;;;;;;14.39;100.00;98116.78;6114289;19;20003;-72
2023/09/20 03:55:49;;;;;;;2.95;1.80;;;;;;;14.37;100.00;98117.19;6112914;19;19999;-72
2023/09/20 03:57:50;;;;;;;1.98;1.40;;;;;;;14.36;100.00;98117.59;6113785;19;20011;-72
2023/09/20 03:59:54;;;;;;;2.15;1.35;;;;;;;14.33;100.00;98116.44;6112608;19;20007;-72
2023/09/20 04:01:55;;;;;;;3.63;1.50;;;;;;;14.34;100.00;98110.47;6111980;19;20572;-72
2023/09/20 04:03:55;;;;;;;3.25;1.40;;;;;;;14.33;100.00;98119.22;6113502;19;20042;-72
2023/09/20 04:05:57;;;;;;;2.60;1.50;;;;;;;14.34;100.00;98106.91;6112657;19;19999;-72
2023/09/20 04:07:59;;;;;;;5.50;2.00;;;;;;;14.34;100.00;98113.25;6113857;19;20026;-72
2023/09/20 04:10:02;;;;;;;3.47;1.40;;;;;;;14.37;100.00;98108.84;6111283;19;20271;-72
2023/09/20 04:12:05;;;;;;;;;;;;;;;14.38;100.00;98117.97;6114192;19;20350;-72
2023/09/20 04:14:07;;;;;;;2.75;1.40;;;;;;;14.37;100.00;98108.84;6111966;19;19919;-72
2023/09/20 04:16:08;;;;;;;5.00;1.95;;;;;;;14.38;100.00;98109.63;6113287;19;20008;-72
2023/09/20 04:18:09;;;;;;;3.05;1.83;;;;;;;14.37;100.00;98099.72;6113067;19;20002;-72
2023/09/20 04:20:11;;;;;;;3.63;1.50;;;;;;;14.36;100.00;98106.47;6111597;19;19999;-72
2023/09/20 04:22:11;;;;;;;2.88;1.40;;;;;;;14.32;100.00;98112.88;6111694;19;20007;-72
2023/09/20 04:24:11;;;;;;;2.53;1.42;;;;;;;14.32;100.00;98104.53;6111158;19;20339;-72
2023/09/20 04:26:12;;;;;;;2.50;1.77;;;;;;;14.30;100.00;98115.25;6110831;19;19999;-72
2023/09/20 04:28:12;;;;;;;2.78;1.60;;;;;;;14.29;100.00;98108.13;6110133;19;19999;-72
2023/09/20 04:30:14;;;;;;;3.30;1.50;;;;;;;14.31;100.00;98116.88;6111257;19;20021;-72
2023/09/20 04:32:15;;;;;;;2.03;1.73;;;;;;;14.30;100.00;98108.91;6112976;19;20344;-72
2023/09/20 04:34:15;;;;;;;3.03;1.40;;;;;;;14.31;100.00;98116.88;6112355;19;20011;-72
2023/09/20 04:36:16;;;;;;;4.38;1.70;;;;;;;14.29;100.00;98119.25;6111886;19;19999;-72
2023/09/20 04:38:16;;;;;;;1.85;1.30;;;;;;;14.28;100.00;98111.31;6110453;19;20746;-72
2023/09/20 04:40:16;;;;;;;3.38;1.60;;;;;;;14.27;100.00;98112.53;6111114;19;20010;-72
2023/09/20 04:42:17;;;;;;;3.05;1.77;;;;;;;14.29;100.00;98112.91;6111957;19;20092;-72
2023/09/20 04:44:18;;;;;;;2.25;1.35;;;;;;;14.30;100.00;98112.47;6107821;19;20018;-72
2023/09/20 04:46:18;;;;;;;2.10;1.35;;;;;;;14.27;100.00;98099.41;6112084;19;20018;-72
2023/09/20 04:48:18;;;;;;;2.28;1.40;;;;;;;14.30;100.00;98108.91;6111715;19;20032;-72
2023/09/20 04:50:19;;;;;;;2.28;1.65;;;;;;;14.31;100.00;98107.69;6109052;19;20010;-72
2023/09/20 04:52:20;;;;;;;4.35;1.40;;;;;;;14.29;100.00;98102.56;6110549;19;20015;-72
2023/09/20 04:54:23;;;;;;;3.70;1.40;;;;;;;14.25;100.00;98107.38;6109519;19;20010;-72
2023/09/20 04:56:24;;;;;;;4.75;1.70;;;;;;;14.20;100.00;98104.22;6108300;19;20394;-72
2023/09/20 04:58:25;;;;;;;4.55;1.65;;;;;;;14.16;100.00;98117.41;6108460;19;20415;-72
2023/09/20 05:00:33;;;;;;;3.53;1.27;;;;;;;14.11;100.00;98106.69;6107585;19;20013;-72
2023/09/20 05:02:33;;;;;;;2.95;1.55;;;;;;;14.03;100.00;98117.88;6110391;19;20010;-72
2023/09/20 05:04:37;;;;;;;7.88;1.75;;;;;;;13.98;100.00;98123.09;6109457;19;20484;-72
2023/09/20 05:06:37;;;;;;;6.75;1.88;;;;;;;13.92;100.00;98119.97;6107830;19;20006;-72
2023/09/20 05:08:39;;;;;;;7.28;1.70;;;;;;;13.81;100.00;98126.78;6107796;19;20002;-72
2023/09/20 05:10:39;;;;;;;5.88;1.88;;;;;;;13.80;100.00;98119.66;6109710;19;20029;-72
2023/09/20 05:12:41;;;;;;;3.33;1.67;;;;;;;13.73;100.00;98131.59;6109206;19;20011;-72
2023/09/20 05:14:42;;;;;;;3.50;1.80;;;;;;;13.66;100.00;98123.34;6107935;19;20026;-72
2023/09/20 05:16:42;;;;;;;3.30;1.33;;;;;;;13.60;100.00;98133.31;6109119;19;20002;-72
2023/09/20 05:18:43;;;;;;;4.05;1.83;;;;;;;13.54;100.00;98121.81;6106667;19;20021;-72
2023/09/20 05:20:47;;;;;;;4.43;1.70;;;;;;;13.48;100.00;98124.22;6109471;19;20006;-72
2023/09/20 05:22:47;;;;;;;4.35;2.00;;;;;;;13.41;100.00;98129.03;6107117;19;20369;-72
2023/09/20 05:24:47;;;;;;;4.65;1.77;;;;;;;13.32;100.00;98132.28;6108623;19;20507;-72
2023/09/20 05:26:48;;;;;;;5.22;1.80;;;;;;;13.28;100.00;98130.69;6109429;19;20355;-72
2023/09/20 05:28:48;;;;;;;5.70;1.80;;;;;;;13.23;100.00;98126.34;6107191;19;20007;-72
2023/09/20 05:30:49;;;;;;;6.43;2.05;;;;;;;13.20;100.00;98119.59;6107726;19;20339;-72
2023/09/20 05:32:51;;;;;;;8.27;1.67;;;;;;;13.19;100.00;98128.31;6109296;19;20021;-72
2023/09/20 05:34:52;;;;;;;2.38;1.58;;;;;;;13.16;100.00;98115.25;6108842;19;20023;-72
2023/09/20 05:36:53;;;;;;;3.80;1.70;;;;;;;13.17;100.00;98119.59;6108778;19;20526;-72
2023/09/20 05:38:54;;;;;;;3.85;1.60;;;;;;;13.24;100.00;98121.56;6105314;19;20006;-72
2023/09/20 05:40:54;;;;;;;3.90;1.42;;;;;;;13.27;100.00;98135.47;6107892;19;20006;-72
2023/09/20 05:42:55;;;;;;;3.10;1.77;;;;;;;13.32;100.00;98135.03;6107724;19;20342;-72
2023/09/20 05:44:55;;;;;;;3.83;1.60;;;;;;;13.37;100.00;98134.59;6107612;19;20407;-72
2023/09/20 05:46:56;;;;;;;3.00;2.05;;;;;;;13.44;100.00;98129.00;6108656;19;20011;-72
2023/09/20 05:48:57;;;;;;;3.17;1.60;;;;;;;13.57;100.00;98132.13;6105936;19;20486;-72
2023/09/20 05:50:57;;;;;;;4.38;2.00;;;;;;;13.67;100.00;98136.81;6107945;19;20031;-72
2023/09/20 05:52:57;;;;;;;2.08;1.50;;;;;;;13.76;100.00;98141.94;6108542;19;20683;-72
2023/09/20 05:54:58;;;;;;;1.98;1.58;;;;;;;13.86;100.00;98137.50;6110110;19;20013;-72
2023/09/20 05:56:59;;;;;;;4.78;1.48;;;;;;;13.92;100.00;98127.53;6110988;19;20013;-72
2023/09/20 05:59:01;;;;;;;1.95;1.35;;;;;;;13.98;100.00;98129.47;6108076;19;20104;-72
2023/09/20 06:01:01;;;;;;;2.25;1.63;;;;;;;14.04;100.00;98130.59;6109357;19;20273;-72
2023/09/20 06:03:05;;;;;;;2.50;1.45;;;;;;;14.13;100.00;98129.34;6108364;19;20009;-72
2023/09/20 06:05:08;;;;;;;2.28;1.40;;;;;;;14.17;100.00;98124.53;6109597;19;20011;-72
2023/09/20 06:07:09;;;;;;;2.40;1.50;;;;;;;14.20;100.00;98130.06;6109984;19;20029;-72
2023/09/20 06:09:09;;;;;;;5.22;1.20;;;;;;;14.26;100.00;98130.44;6108976;19;20462;-72
2023/09/20 06:11:10;;;;;;;4.10;1.80;;;;;;;14.34;100.00;98131.94;6111097;19;20011;-72
2023/09/20 06:13:11;;;;;;;3.92;1.50;;;;;;;14.38;100.00;98127.13;6108613;19;20021;-72
2023/09/20 06:15:14;;;;;;;2.72;1.60;;;;;;;14.43;100.00;98123.91;6109746;19;20007;-72
2023/09/20 06:17:15;;;;;;;3.58;1.48;;;;;;;14.50;100.00;98123.88;6109682;19;20066;-72
2023/09/20 06:19:16;;;;;;;2.85;1.40;;;;;;;14.58;100.00;98124.59;6107677;19;20055;-71
2023/09/20 06:21:17;;;;;;;2.45;1.58;;;;;;;14.67;100.00;98116.53;6110197;19;20026;-71
2023/09/20 06:23:18;;;;;;;2.63;1.48;;;;;;;14.73;100.00;98117.66;6107455;19;20031;-71
2023/09/20 06:25:22;;;;;;;3.10;1.33;;;;;;;14.78;100.00;98122.78;6109444;19;20002;-71
2023/09/20 06:27:22;;;;;;;3.53;1.60;;;;;;;14.85;100.00;98124.69;6109754;19;20066;-71
2023/09/20 06:29:24;;;;;;;3.15;1.40;;;;;;;14.93;100.00;98126.19;6107197;19;19999;-71
2023/09/20 06:31:25;;;;;;;3.15;1.40;;;;;;;15.02;100.00;98123.69;6105701;19;20111;-71
2023/09/20 06:33:25;;;;;;;2.65;1.70;;;;;;;15.10;100.00;98118.81;6102901;19;20767;-71
2023/09/20 06:35:25;;;;;;;2.00;1.40;;;;;;;15.20;100.00;98129.03;6103668;19;20038;-71
2023/09/20 06:37:26;;;;;;;5.30;1.25;;;;;;;15.27;100.00;98128.16;6101624;19;20076;-71
2023/09/20 06:39:26;;;;;;;2.22;1.55;;;;;;;15.30;100.00;98125.31;6102208;19;20308;-71
2023/09/20 06:41:27;;;;;;;3.05;2.20;;;;;;;15.36;100.00;98126.44;6101715;19;19999;-71
2023/09/20 06:43:28;;;;;;;4.75;1.48;;;;;;;15.40;100.00;98130.00;6102916;19;20490;-71
2023/09/20 06:45:28;;;;;;;5.93;1.85;;;;;;;15.48;100.00;98130.69;6103701;19;20003;-71
2023/09/20 06:47:30;;;;;;;4.70;1.95;;;;;;;15.55;100.00;98119.41;6101156;19;20537;-71
2023/09/20 06:49:31;;;;;;;3.92;1.60;;;;;;;15.62;100.00;98124.13;6101212;19;20002;-71
2023/09/20 06:51:31;;;;;;;3.78;1.40;;;;;;;15.68;100.00;98122.47;6099199;19;19999;-72
2023/09/20 06:53:32;;;;;;;5.05;1.75;;;;;;;15.77;100.00;98119.13;6108236;19;20035;-71
2023/09/20 06:55:33;;;;;;;2.30;1.40;;;;;;;15.91;100.00;98130.09;6108927;19;20401;-71
2023/09/20 06:57:33;;;;;;;2.92;1.88;;;;;;;15.97;100.00;98129.19;6107945;19;20636;-72
2023/09/20 06:59:34;;;;;;;3.55;1.75;;;;;;;16.06;100.00;98141.81;6106348;19;20005;-71
2023/09/20 07:01:35;;;;;;;3.42;1.48;;;;;;;16.13;100.00;98136.09;6108448;19;20379;-71
2023/09/20 07:03:35;;;;;;;4.82;1.85;;;;;;;16.20;100.00;98141.56;6107026;19;20079;-72
2023/09/20 07:05:36;;;;;;;4.53;1.38;;;;;;;16.26;100.00;98137.88;6107671;19;20010;-71
2023/09/20 07:07:36;;;;;;;2.28;1.48;;;;;;;16.34;100.00;98137.78;6109286;19;20003;-71
2023/09/20 07:09:37;;;;;;;3.13;1.30;;;;;;;16.38;100.00;98139.28;6104982;19;20022;-71
2023/09/20 07:11:37;;;;;;;3.53;1.75;;;;;;;16.46;100.00;98146.31;6108869;19;20161;-71
2023/09/20 07:13:37;;;;;;;3.03;1.30;;;;;;;16.53;100.00;98143.41;6108875;19;20015;-71
2023/09/20 07:15:39;;;;;;;3.40;1.40;;;;;;;16.63;100.00;98152.00;6108021;19;20449;-72
2023/09/20 07:17:40;;;;;;;4.28;1.60;;;;;;;16.68;100.00;98149.53;6106769;19;20361;-71
2023/09/20 07:19:44;;;;;;;3.88;1.35;;;;;;;16.73;100.00;98151.06;6105028;19;20031;-72
2023/09/20 07:21:47;;;;;;;2.63;1.40;;;;;;;16.77;100.00;98163.75;6112876;19;20018;-71
2023/09/20 07:23:48;;;;;;;3.95;1.83;;;;;;;16.80;100.00;98157.31;6109593;19;20318;-72
2023/09/20 07:25:49;;;;;;;4.60;1.73;;;;;;;16.85;100.00;98156.81;6110370;19;20066;-71
2023/09/20 07:27:50;;;;;;;3.22;1.17;;;;;;;16.89;100.00;98158.78;6109857;19;20029;-71
2023/09/20 07:29:51;;;;;;;4.07;1.45;;;;;;;16.96;100.00;98159.41;6107964;19;20003;-72
2023/09/20 07:31:53;;;;;;;2.38;1.25;;;;;;;16.93;100.00;98151.88;6112878;19;20015;-71
2023/09/20 07:33:56;;;;;;;3.28;1.42;;;;;;;16.93;100.00;98157.47;6110997;19;20549;-72
2023/09/20 07:36:00;;;;;;;2.60;1.60;;;;;;;16.91;100.00;98157.13;6110933;19;20003;-72
2023/09/20 07:38:02;;;;;;;4.95;1.80;;;;;;;16.88;100.00;98159.97;6112294;19;20066;-72
2023/09/20 07:40:03;;;;;;;2.65;1.95;;;;;;;16.82;100.00;98159.69;6111396;19;20025;-72
2023/09/20 07:42:05;;;;;;;4.13;1.65;;;;;;;16.80;100.00;98164.91;6107939;19;20006;-72
2023/09/20 07:44:07;;;;;;;3.65;1.58;;;;;;;16.77;100.00;98158.16;6107758;19;20010;-71
2023/09/20 07:46:07;;;;;;;3.45;1.50;;;;;;;16.75;100.00;98160.59;6111834;19;20364;-71
2023/09/20 07:48:12;;;;;;;3.53;1.30;;;;;;;16.73;100.00;98163.03;6110194;19;19998;-72
2023/09/20 07:50:14;;;;;;;3.70;1.60;;;;;;;16.75;100.00;98168.97;6111845;19;20009;-72
2023/09/20 07:52:14;;;;;;;3.43;1.47;;;;;;;16.74;100.00;98161.03;6114413;19;20016;-72
2023/09/20 07:54:14;;;;;;;3.63;1.50;;;;;;;16.73;100.00;98174.22;6113015;19;20006;-72
2023/09/20 07:56:15;;;;;;;3.10;1.85;;;;;;;16.70;100.00;98160.28;6113422;19;19999;-72
2023/09/20 07:58:15;;;;;;;2.00;1.40;;;;;;;16.68;100.00;98165.50;6111303;19;20319;-72
2023/09/20 08:00:16;;;;;;;3.55;1.70;;;;;;;16.72;100.00;98161.47;6110388;19;20007;-72
2023/09/20 08:02:17;;;;;;;3.20;1.60;;;;;;;16.78;100.00;98161.75;6114873;19;20454;-72
2023/09/20 08:04:17;;;;;;;2.65;1.50;;;;;;;16.89;100.00;98162.34;6112731;19;20015;-71
2023/09/20 08:06:19;;;;;;;3.17;1.58;;;;;;;16.99;100.00;98163.38;6113098;19;20426;-72
2023/09/20 08:08:20;;;;;;;2.27;1.50;;;;;;;17.08;100.00;98169.97;6113230;19;20009;-71
2023/09/20 08:10:20;;;;;;;2.67;1.70;;;;;;;17.18;100.00;98159.00;6111949;19;20267;-72
2023/09/20 08:12:21;;;;;;;5.32;1.55;;;;;;;17.26;100.00;98155.63;6113978;19;20042;-72
2023/09/20 08:14:21;;;;;;;4.22;1.63;;;;;;;17.37;100.00;98153.38;6113392;19;20040;-72
2023/09/20 08:16:23;;;;;;;5.63;1.55;;;;;;;17.50;100.00;98161.91;6112102;19;20002;-72
2023/09/20 08:20:43;;;;;;;1.67;1.20;;;;;;;17.73;100.00;98163.84;6112350;19;19934;-72
2023/09/20 08:59:55;;;;;;;1.95;1.52;;;;;;;18.17;100.00;98134.44;6106770;19;20042;-72
2023/09/20 09:01:57;;;;;;;4.97;1.83;;;;;;;18.28;100.00;98139.75;6108902;19;20448;-72
2023/09/20 09:04:00;;;;;;;2.05;1.65;;;;;;;18.40;100.00;98138.28;6107952;19;20006;-72
2023/09/20 09:06:02;;;;;;;2.20;1.40;;;;;;;18.52;100.00;98126.34;6107147;19;20019;-72
2023/09/20 09:08:03;;;;;;;3.45;1.52;;;;;;;18.61;100.00;98129.31;6105042;19;20474;-72
2023/09/20 09:10:05;;;;;;;2.67;1.45;;;;;;;18.72;100.00;98131.88;6109412;19;20022;-72
2023/09/20 09:12:05;;;;;;;3.53;1.65;;;;;;;18.85;100.00;98132.72;6108604;19;20062;-72
2023/09/20 09:14:06;;;;;;;3.13;1.27;;;;;;;18.93;100.00;98131.28;6110981;19;20380;-72
2023/09/20 09:16:07;;;;;;;3.15;1.38;;;;;;;19.01;100.00;98132.66;6111488;19;20002;-72
2023/09/20 09:18:15;;;;;;;2.53;1.40;;;;;;;19.08;100.00;98128.88;6108626;19;20023;-72
2023/09/20 09:20:19;;;;;;;3.38;1.20;;;;;;;19.15;100.00;98131.47;6109948;19;20006;-72
2023/09/20 09:22:23;;;;;;;3.85;1.50;;;;;;;19.21;100.00;98126.91;6112280;19;20030;-72
2023/09/20 09:24:24;;;;;;;2.60;1.23;;;;;;;19.27;100.00;98129.94;6109449;19;20026;-72
2023/09/20 09:26:25;;;;;;;3.08;1.38;;;;;;;19.32;100.00;98120.97;6110231;19;20015;-72
2023/09/20 09:28:26;;;;;;;6.40;1.57;;;;;;;19.35;100.00;98115.25;6110694;19;20099;-72
2023/09/20 09:30:26;;;;;;;3.45;1.10;;;;;;;19.40;100.00;98118.75;6109832;19;20011;-72
2023/09/20 09:32:35;;;;;;;3.45;1.63;;;;;;;19.39;100.00;98112.34;6112105;19;20080;-72
2023/09/20 09:34:38;;;;;;;2.70;1.02;;;;;;;19.51;100.00;98119.22;6108720;19;20463;-72
2023/09/20 09:36:40;;;;;;;2.20;1.20;;;;;;;19.46;100.00;98109.34;6111397;19;20002;-72
2023/09/20 09:38:41;;;;;;;3.30;1.30;;;;;;;19.56;100.00;98125.09;6109160;19;20028;-72
2023/09/20 09:40:58;;;;;;;2.13;1.20;;;;;;;19.69;100.00;98113.09;6109455;19;20006;-72
2023/09/20 09:43:13;;;;;;;2.95;1.20;;;;;;;19.74;100.00;98123.75;6110168;19;20018;-72
2023/09/20 09:45:29;;;;;;;3.63;1.35;;;;;;;19.74;100.00;98124.53;6109573;19;20029;-72
2023/09/20 09:47:30;;;;;;;2.15;1.10;;;;;;;19.79;100.00;98120.41;6110662;19;20435;-72
2023/09/20 09:49:34;;;;;;;4.32;1.45;;;;;;;19.86;100.00;98125.81;6108650;19;20027;-72
2023/09/20 09:51:35;;;;;;;2.80;1.60;;;;;;;19.88;100.00;98112.88;6106549;19;20003;-72
2023/09/20 09:53:37;;;;;;;3.63;1.42;;;;;;;19.92;100.00;98119.16;6108462;19;20003;-72
2023/09/20 09:55:38;;;;;;;1.83;1.40;;;;;;;19.95;100.00;98120.28;6108409;19;20003;-72
2023/09/20 09:57:39;;;;;;;1.38;1.00;;;;;;;20.07;100.00;98127.13;6108399;19;20027;-72
2023/09/20 09:59:42;;;;;;;3.70;1.52;;;;;;;20.07;100.00;98127.13;6106465;19;20007;-72
2023/09/20 10:01:44;;;;;;;2.83;1.40;;;;;;;20.02;100.00;98122.06;6108841;19;20033;-72
2023/09/20 10:03:50;;;;;;;4.40;1.60;;;;;;;19.96;100.00;98116.25;6107831;19;20580;-72
2023/09/20 10:06:15;;;;;;;2.15;1.15;;;;;;;19.85;100.00;98127.00;6106979;19;20009;-72